Alcaraz, Argentina
Current Conditions -  °F | °C
As of 9:00 PM on Wednesday 22 Oct 2014 (Local Time) from SUSO Reporting Station
Clear Clear  
Wind Chill: 77°   Ceiling: Unl
Heat Index: 79°   Visibility: 6mi
Dew Point: 61°   Wind: 6mph
Humidity: 57%   Direction: 90°E
Pressure: 29.97"   Gusts: NA
Location:  31.47°S, 59.6°W
Report Text: SUSO 230000Z 09005KT CAVOK 25/16 Q1015
Loading
Personal Weather Stations






























Interactive Weather Map
Tropical Storm Tracking
New forecast layout! Learn more

10-Day Weather Forecast

Advertisements
Track Severe Weather on mobile